sensor_id;sensor_type;location;lat;lon;timestamp;P1;durP1;ratioP1;P2;durP2;ratioP2
789;SDS011;378;48.844;9.156;2022-12-18T00:00:42;94.30;;;33.23;;
789;SDS011;378;48.844;9.156;2022-12-18T00:03:09;85.90;;;28.57;;
789;SDS011;378;48.844;9.156;2022-12-18T00:05:37;95.00;;;29.40;;
789;SDS011;378;48.844;9.156;2022-12-18T00:08:11;91.67;;;28.80;;
789;SDS011;378;48.844;9.156;2022-12-18T00:10:38;91.17;;;30.10;;
789;SDS011;378;48.844;9.156;2022-12-18T00:13:05;85.33;;;30.00;;
789;SDS011;378;48.844;9.156;2022-12-18T00:15:32;76.10;;;26.10;;
789;SDS011;378;48.844;9.156;2022-12-18T00:17:59;88.63;;;27.70;;
789;SDS011;378;48.844;9.156;2022-12-18T00:20:26;80.47;;;27.73;;
789;SDS011;378;48.844;9.156;2022-12-18T00:22:57;83.43;;;28.67;;
789;SDS011;378;48.844;9.156;2022-12-18T00:25:28;92.40;;;28.43;;
789;SDS011;378;48.844;9.156;2022-12-18T00:27:55;84.30;;;27.17;;
789;SDS011;378;48.844;9.156;2022-12-18T00:30:22;77.37;;;27.87;;
789;SDS011;378;48.844;9.156;2022-12-18T00:32:48;116.85;;;42.15;;
789;SDS011;378;48.844;9.156;2022-12-18T00:35:15;89.53;;;32.57;;
789;SDS011;378;48.844;9.156;2022-12-18T00:37:42;85.17;;;28.80;;
789;SDS011;378;48.844;9.156;2022-12-18T00:40:11;91.10;;;29.23;;
789;SDS011;378;48.844;9.156;2022-12-18T00:42:38;92.63;;;28.63;;
789;SDS011;378;48.844;9.156;2022-12-18T00:45:25;82.67;;;27.70;;
789;SDS011;378;48.844;9.156;2022-12-18T00:47:53;95.50;;;26.47;;
789;SDS011;378;48.844;9.156;2022-12-18T00:50:21;89.00;;;27.93;;
789;SDS011;378;48.844;9.156;2022-12-18T00:52:49;77.20;;;24.97;;
789;SDS011;378;48.844;9.156;2022-12-18T00:55:17;79.30;;;27.23;;
789;SDS011;378;48.844;9.156;2022-12-18T00:57:45;80.13;;;26.87;;
789;SDS011;378;48.844;9.156;2022-12-18T01:00:12;87.93;;;26.90;;
789;SDS011;378;48.844;9.156;2022-12-18T01:02:41;95.40;;;30.48;;
789;SDS011;378;48.844;9.156;2022-12-18T01:05:08;85.70;;;26.20;;
789;SDS011;378;48.844;9.156;2022-12-18T01:07:35;92.37;;;27.53;;
789;SDS011;378;48.844;9.156;2022-12-18T01:10:03;91.83;;;28.67;;
789;SDS011;378;48.844;9.156;2022-12-18T01:12:32;92.03;;;27.87;;
789;SDS011;378;48.844;9.156;2022-12-18T01:14:59;86.60;;;27.20;;
789;SDS011;378;48.844;9.156;2022-12-18T01:17:25;87.00;;;28.07;;
789;SDS011;378;48.844;9.156;2022-12-18T01:19:52;89.47;;;28.90;;
789;SDS011;378;48.844;9.156;2022-12-18T01:22:19;87.00;;;25.93;;
789;SDS011;378;48.844;9.156;2022-12-18T01:24:46;89.83;;;27.87;;
789;SDS011;378;48.844;9.156;2022-12-18T01:27:13;83.03;;;27.00;;
789;SDS011;378;48.844;9.156;2022-12-18T01:29:41;77.03;;;25.47;;
789;SDS011;378;48.844;9.156;2022-12-18T01:32:08;84.47;;;27.80;;
789;SDS011;378;48.844;9.156;2022-12-18T01:34:35;79.23;;;27.17;;
789;SDS011;378;48.844;9.156;2022-12-18T01:37:03;83.67;;;26.33;;
789;SDS011;378;48.844;9.156;2022-12-18T01:39:31;89.93;;;29.20;;
789;SDS011;378;48.844;9.156;2022-12-18T01:41:58;83.60;;;26.03;;
789;SDS011;378;48.844;9.156;2022-12-18T01:47:23;81.37;;;24.27;;
789;SDS011;378;48.844;9.156;2022-12-18T01:49:52;109.03;;;38.33;;
789;SDS011;378;48.844;9.156;2022-12-18T01:52:20;95.43;;;30.57;;
789;SDS011;378;48.844;9.156;2022-12-18T01:54:50;86.03;;;27.93;;
789;SDS011;378;48.844;9.156;2022-12-18T01:57:18;74.17;;;27.27;;
789;SDS011;378;48.844;9.156;2022-12-18T01:59:46;76.70;;;25.60;;
789;SDS011;378;48.844;9.156;2022-12-18T02:02:18;79.63;;;24.90;;
789;SDS011;378;48.844;9.156;2022-12-18T02:04:46;69.47;;;23.57;;
789;SDS011;378;48.844;9.156;2022-12-18T02:07:14;80.97;;;24.83;;
789;SDS011;378;48.844;9.156;2022-12-18T02:09:49;80.27;;;26.37;;
789;SDS011;378;48.844;9.156;2022-12-18T02:12:21;92.90;;;28.97;;
789;SDS011;378;48.844;9.156;2022-12-18T02:14:52;73.67;;;25.67;;
789;SDS011;378;48.844;9.156;2022-12-18T02:17:25;72.37;;;22.87;;
789;SDS011;378;48.844;9.156;2022-12-18T02:20:02;79.47;;;25.77;;
789;SDS011;378;48.844;9.156;2022-12-18T02:22:40;71.17;;;22.87;;
789;SDS011;378;48.844;9.156;2022-12-18T02:25:16;98.72;;;34.50;;
789;SDS011;378;48.844;9.156;2022-12-18T02:27:57;84.93;;;27.63;;
789;SDS011;378;48.844;9.156;2022-12-18T02:30:26;76.80;;;24.97;;
789;SDS011;378;48.844;9.156;2022-12-18T02:32:57;77.97;;;24.90;;
789;SDS011;378;48.844;9.156;2022-12-18T02:35:27;71.77;;;22.77;;
789;SDS011;378;48.844;9.156;2022-12-18T02:37:56;70.30;;;22.47;;
789;SDS011;378;48.844;9.156;2022-12-18T02:40:24;61.17;;;22.60;;
789;SDS011;378;48.844;9.156;2022-12-18T02:42:53;69.07;;;23.73;;
789;SDS011;378;48.844;9.156;2022-12-18T02:45:22;80.77;;;25.10;;
789;SDS011;378;48.844;9.156;2022-12-18T02:47:49;66.07;;;23.53;;
789;SDS011;378;48.844;9.156;2022-12-18T02:50:18;69.20;;;22.80;;
789;SDS011;378;48.844;9.156;2022-12-18T02:53:02;73.50;;;23.27;;
789;SDS011;378;48.844;9.156;2022-12-18T02:55:39;64.40;;;23.50;;
789;SDS011;378;48.844;9.156;2022-12-18T02:58:15;77.20;;;24.23;;
789;SDS011;378;48.844;9.156;2022-12-18T03:00:48;86.65;;;28.95;;
789;SDS011;378;48.844;9.156;2022-12-18T03:03:25;69.67;;;24.27;;
789;SDS011;378;48.844;9.156;2022-12-18T03:05:56;70.07;;;24.00;;
789;SDS011;378;48.844;9.156;2022-12-18T03:08:29;77.47;;;22.10;;
789;SDS011;378;48.844;9.156;2022-12-18T03:11:00;77.60;;;24.80;;
789;SDS011;378;48.844;9.156;2022-12-18T03:13:30;73.37;;;23.60;;
789;SDS011;378;48.844;9.156;2022-12-18T03:16:02;70.60;;;22.33;;
789;SDS011;378;48.844;9.156;2022-12-18T03:18:33;74.10;;;24.37;;
789;SDS011;378;48.844;9.156;2022-12-18T03:21:02;56.87;;;21.90;;
789;SDS011;378;48.844;9.156;2022-12-18T03:23:32;94.70;;;32.57;;
789;SDS011;378;48.844;9.156;2022-12-18T03:26:02;67.20;;;23.77;;
789;SDS011;378;48.844;9.156;2022-12-18T03:28:33;77.80;;;24.93;;
789;SDS011;378;48.844;9.156;2022-12-18T03:31:08;72.87;;;22.40;;
789;SDS011;378;48.844;9.156;2022-12-18T03:33:37;66.03;;;22.87;;
789;SDS011;378;48.844;9.156;2022-12-18T03:36:08;96.85;;;34.88;;
789;SDS011;378;48.844;9.156;2022-12-18T03:38:35;74.63;;;26.17;;
789;SDS011;378;48.844;9.156;2022-12-18T03:41:03;74.60;;;22.90;;
789;SDS011;378;48.844;9.156;2022-12-18T03:43:39;77.70;;;22.27;;
789;SDS011;378;48.844;9.156;2022-12-18T03:46:17;62.47;;;22.90;;
789;SDS011;378;48.844;9.156;2022-12-18T03:48:52;65.70;;;21.37;;
789;SDS011;378;48.844;9.156;2022-12-18T03:51:24;64.80;;;21.33;;
789;SDS011;378;48.844;9.156;2022-12-18T03:53:55;66.57;;;20.80;;
789;SDS011;378;48.844;9.156;2022-12-18T03:56:25;61.47;;;19.77;;
789;SDS011;378;48.844;9.156;2022-12-18T03:58:55;61.63;;;18.67;;
789;SDS011;378;48.844;9.156;2022-12-18T04:01:28;64.70;;;20.67;;
789;SDS011;378;48.844;9.156;2022-12-18T04:03:58;59.73;;;20.30;;
789;SDS011;378;48.844;9.156;2022-12-18T04:06:26;67.87;;;21.53;;
789;SDS011;378;48.844;9.156;2022-12-18T04:08:55;65.47;;;21.03;;
789;SDS011;378;48.844;9.156;2022-12-18T04:11:23;68.67;;;22.67;;
789;SDS011;378;48.844;9.156;2022-12-18T04:13:50;73.43;;;21.47;;
789;SDS011;378;48.844;9.156;2022-12-18T04:16:21;55.10;;;19.33;;
789;SDS011;378;48.844;9.156;2022-12-18T04:18:49;64.43;;;21.83;;
789;SDS011;378;48.844;9.156;2022-12-18T04:21:16;61.33;;;20.13;;
789;SDS011;378;48.844;9.156;2022-12-18T04:23:43;56.50;;;20.87;;
789;SDS011;378;48.844;9.156;2022-12-18T04:26:09;62.30;;;20.80;;
789;SDS011;378;48.844;9.156;2022-12-18T04:28:36;60.50;;;20.13;;
789;SDS011;378;48.844;9.156;2022-12-18T04:31:03;58.23;;;20.50;;
789;SDS011;378;48.844;9.156;2022-12-18T04:33:30;70.40;;;21.47;;
789;SDS011;378;48.844;9.156;2022-12-18T04:35:58;65.17;;;20.80;;
789;SDS011;378;48.844;9.156;2022-12-18T04:38:25;58.77;;;19.47;;
789;SDS011;378;48.844;9.156;2022-12-18T04:40:52;62.90;;;20.90;;
789;SDS011;378;48.844;9.156;2022-12-18T04:43:19;65.27;;;21.70;;
789;SDS011;378;48.844;9.156;2022-12-18T04:45:46;58.37;;;19.87;;
789;SDS011;378;48.844;9.156;2022-12-18T04:48:13;55.53;;;19.53;;
789;SDS011;378;48.844;9.156;2022-12-18T04:50:39;58.73;;;19.17;;
789;SDS011;378;48.844;9.156;2022-12-18T04:53:07;62.40;;;20.40;;
789;SDS011;378;48.844;9.156;2022-12-18T04:55:34;58.60;;;20.00;;
789;SDS011;378;48.844;9.156;2022-12-18T04:58:01;58.47;;;20.60;;
789;SDS011;378;48.844;9.156;2022-12-18T05:00:28;59.90;;;21.00;;
789;SDS011;378;48.844;9.156;2022-12-18T05:02:55;58.63;;;20.13;;
789;SDS011;378;48.844;9.156;2022-12-18T05:05:21;72.65;;;25.08;;
789;SDS011;378;48.844;9.156;2022-12-18T05:07:48;62.53;;;20.80;;
789;SDS011;378;48.844;9.156;2022-12-18T05:10:16;61.33;;;21.03;;
789;SDS011;378;48.844;9.156;2022-12-18T05:12:43;59.23;;;18.87;;
789;SDS011;378;48.844;9.156;2022-12-18T05:15:24;56.47;;;18.00;;
789;SDS011;378;48.844;9.156;2022-12-18T05:17:52;51.00;;;18.37;;
789;SDS011;378;48.844;9.156;2022-12-18T05:20:19;65.33;;;21.63;;
789;SDS011;378;48.844;9.156;2022-12-18T05:22:46;59.90;;;18.80;;
789;SDS011;378;48.844;9.156;2022-12-18T05:25:13;55.57;;;19.43;;
789;SDS011;378;48.844;9.156;2022-12-18T05:27:41;59.03;;;18.67;;
789;SDS011;378;48.844;9.156;2022-12-18T05:30:08;59.80;;;19.07;;
789;SDS011;378;48.844;9.156;2022-12-18T05:32:36;57.63;;;19.20;;
789;SDS011;378;48.844;9.156;2022-12-18T05:35:03;59.90;;;18.97;;
789;SDS011;378;48.844;9.156;2022-12-18T05:37:31;58.23;;;19.13;;
789;SDS011;378;48.844;9.156;2022-12-18T05:39:58;55.30;;;18.13;;
789;SDS011;378;48.844;9.156;2022-12-18T05:42:25;49.27;;;19.00;;
789;SDS011;378;48.844;9.156;2022-12-18T05:44:53;55.23;;;18.53;;
789;SDS011;378;48.844;9.156;2022-12-18T05:47:20;56.70;;;19.57;;
789;SDS011;378;48.844;9.156;2022-12-18T05:49:47;59.17;;;19.20;;
789;SDS011;378;48.844;9.156;2022-12-18T05:52:14;74.55;;;26.13;;
789;SDS011;378;48.844;9.156;2022-12-18T05:54:41;62.77;;;21.33;;
789;SDS011;378;48.844;9.156;2022-12-18T05:57:07;62.43;;;20.80;;
789;SDS011;378;48.844;9.156;2022-12-18T05:59:35;58.73;;;20.80;;
789;SDS011;378;48.844;9.156;2022-12-18T06:02:03;59.07;;;19.50;;
789;SDS011;378;48.844;9.156;2022-12-18T06:04:30;60.63;;;17.37;;
789;SDS011;378;48.844;9.156;2022-12-18T06:06:57;58.73;;;19.43;;
789;SDS011;378;48.844;9.156;2022-12-18T06:09:24;58.77;;;19.07;;
789;SDS011;378;48.844;9.156;2022-12-18T06:11:51;60.73;;;18.17;;
789;SDS011;378;48.844;9.156;2022-12-18T06:14:18;52.50;;;19.60;;
789;SDS011;378;48.844;9.156;2022-12-18T06:16:45;63.47;;;20.07;;
789;SDS011;378;48.844;9.156;2022-12-18T06:19:15;51.87;;;17.80;;
789;SDS011;378;48.844;9.156;2022-12-18T06:21:43;73.60;;;25.25;;
789;SDS011;378;48.844;9.156;2022-12-18T06:24:09;61.20;;;20.30;;
789;SDS011;378;48.844;9.156;2022-12-18T06:26:37;54.40;;;18.80;;
789;SDS011;378;48.844;9.156;2022-12-18T06:29:04;59.20;;;18.33;;
789;SDS011;378;48.844;9.156;2022-12-18T06:31:31;51.73;;;17.77;;
789;SDS011;378;48.844;9.156;2022-12-18T06:33:58;54.70;;;18.60;;
789;SDS011;378;48.844;9.156;2022-12-18T06:36:27;54.27;;;17.13;;
789;SDS011;378;48.844;9.156;2022-12-18T06:38:57;48.40;;;17.57;;
789;SDS011;378;48.844;9.156;2022-12-18T06:41:24;55.50;;;17.87;;
789;SDS011;378;48.844;9.156;2022-12-18T06:43:50;58.93;;;17.63;;
789;SDS011;378;48.844;9.156;2022-12-18T06:46:17;47.80;;;16.83;;
789;SDS011;378;48.844;9.156;2022-12-18T06:48:46;53.13;;;17.23;;
789;SDS011;378;48.844;9.156;2022-12-18T06:51:15;41.03;;;15.73;;
789;SDS011;378;48.844;9.156;2022-12-18T06:53:47;50.93;;;17.17;;
789;SDS011;378;48.844;9.156;2022-12-18T06:56:14;48.53;;;17.63;;
789;SDS011;378;48.844;9.156;2022-12-18T06:58:40;53.67;;;17.43;;
789;SDS011;378;48.844;9.156;2022-12-18T07:01:08;48.80;;;17.47;;
789;SDS011;378;48.844;9.156;2022-12-18T07:03:37;56.13;;;17.27;;
789;SDS011;378;48.844;9.156;2022-12-18T07:06:04;46.03;;;17.10;;
789;SDS011;378;48.844;9.156;2022-12-18T07:08:32;49.37;;;16.73;;
789;SDS011;378;48.844;9.156;2022-12-18T07:11:02;70.33;;;26.73;;
789;SDS011;378;48.844;9.156;2022-12-18T07:13:29;67.07;;;21.63;;
789;SDS011;378;48.844;9.156;2022-12-18T07:16:02;56.13;;;19.17;;
789;SDS011;378;48.844;9.156;2022-12-18T07:18:30;50.77;;;18.20;;
789;SDS011;378;48.844;9.156;2022-12-18T07:20:57;42.40;;;15.53;;
789;SDS011;378;48.844;9.156;2022-12-18T07:23:23;42.57;;;16.27;;
789;SDS011;378;48.844;9.156;2022-12-18T07:25:50;47.03;;;17.30;;
789;SDS011;378;48.844;9.156;2022-12-18T07:28:19;55.10;;;17.70;;
789;SDS011;378;48.844;9.156;2022-12-18T07:30:45;62.05;;;21.98;;
789;SDS011;378;48.844;9.156;2022-12-18T07:33:12;50.97;;;19.90;;
789;SDS011;378;48.844;9.156;2022-12-18T07:35:39;53.23;;;19.27;;
789;SDS011;378;48.844;9.156;2022-12-18T07:38:06;56.40;;;18.50;;
789;SDS011;378;48.844;9.156;2022-12-18T07:40:33;49.07;;;18.07;;
789;SDS011;378;48.844;9.156;2022-12-18T07:43:00;60.90;;;21.63;;
789;SDS011;378;48.844;9.156;2022-12-18T07:45:28;57.30;;;19.60;;
789;SDS011;378;48.844;9.156;2022-12-18T07:47:57;49.67;;;18.53;;
789;SDS011;378;48.844;9.156;2022-12-18T07:50:24;56.87;;;18.23;;
789;SDS011;378;48.844;9.156;2022-12-18T07:52:51;54.63;;;17.00;;
789;SDS011;378;48.844;9.156;2022-12-18T07:55:18;49.03;;;18.37;;
789;SDS011;378;48.844;9.156;2022-12-18T07:57:45;51.17;;;16.93;;
789;SDS011;378;48.844;9.156;2022-12-18T08:00:12;59.37;;;18.67;;
789;SDS011;378;48.844;9.156;2022-12-18T08:02:41;51.77;;;18.47;;
789;SDS011;378;48.844;9.156;2022-12-18T08:05:08;49.07;;;18.90;;
789;SDS011;378;48.844;9.156;2022-12-18T08:07:35;52.20;;;18.40;;
789;SDS011;378;48.844;9.156;2022-12-18T08:10:02;49.10;;;18.87;;
789;SDS011;378;48.844;9.156;2022-12-18T08:12:29;54.73;;;18.97;;
789;SDS011;378;48.844;9.156;2022-12-18T08:14:55;58.47;;;24.60;;
789;SDS011;378;48.844;9.156;2022-12-18T08:17:22;55.40;;;20.47;;
789;SDS011;378;48.844;9.156;2022-12-18T08:19:51;59.60;;;20.43;;
789;SDS011;378;48.844;9.156;2022-12-18T08:22:17;53.57;;;18.27;;
789;SDS011;378;48.844;9.156;2022-12-18T08:24:44;50.27;;;19.20;;
789;SDS011;378;48.844;9.156;2022-12-18T08:27:11;47.23;;;17.37;;
789;SDS011;378;48.844;9.156;2022-12-18T08:29:38;50.03;;;17.93;;
789;SDS011;378;48.844;9.156;2022-12-18T08:32:05;45.30;;;18.87;;
789;SDS011;378;48.844;9.156;2022-12-18T08:34:32;44.10;;;16.83;;
789;SDS011;378;48.844;9.156;2022-12-18T08:37:00;47.97;;;17.97;;
789;SDS011;378;48.844;9.156;2022-12-18T08:39:27;49.17;;;18.20;;
789;SDS011;378;48.844;9.156;2022-12-18T08:41:54;49.47;;;18.93;;
789;SDS011;378;48.844;9.156;2022-12-18T08:44:38;45.50;;;16.80;;
789;SDS011;378;48.844;9.156;2022-12-18T08:47:05;46.07;;;18.20;;
789;SDS011;378;48.844;9.156;2022-12-18T08:49:33;46.13;;;20.05;;
789;SDS011;378;48.844;9.156;2022-12-18T08:52:02;47.03;;;19.10;;
789;SDS011;378;48.844;9.156;2022-12-18T08:54:29;46.10;;;18.27;;
789;SDS011;378;48.844;9.156;2022-12-18T08:56:56;48.33;;;18.63;;
789;SDS011;378;48.844;9.156;2022-12-18T08:59:23;46.87;;;18.63;;
789;SDS011;378;48.844;9.156;2022-12-18T09:01:53;46.07;;;19.60;;
789;SDS011;378;48.844;9.156;2022-12-18T09:04:20;40.07;;;17.80;;
789;SDS011;378;48.844;9.156;2022-12-18T09:06:47;46.77;;;19.20;;
789;SDS011;378;48.844;9.156;2022-12-18T09:09:15;43.70;;;17.03;;
789;SDS011;378;48.844;9.156;2022-12-18T09:11:42;48.00;;;19.17;;
789;SDS011;378;48.844;9.156;2022-12-18T09:14:09;47.20;;;18.80;;
789;SDS011;378;48.844;9.156;2022-12-18T09:16:36;48.77;;;18.83;;
789;SDS011;378;48.844;9.156;2022-12-18T09:19:04;45.53;;;19.63;;
789;SDS011;378;48.844;9.156;2022-12-18T09:21:32;53.47;;;24.48;;
789;SDS011;378;48.844;9.156;2022-12-18T09:24:03;48.20;;;19.53;;
789;SDS011;378;48.844;9.156;2022-12-18T09:26:32;49.03;;;19.43;;
789;SDS011;378;48.844;9.156;2022-12-18T09:28:59;49.13;;;19.90;;
789;SDS011;378;48.844;9.156;2022-12-18T09:31:26;43.83;;;18.47;;
789;SDS011;378;48.844;9.156;2022-12-18T09:33:54;51.08;;;23.33;;
789;SDS011;378;48.844;9.156;2022-12-18T09:36:21;47.47;;;20.33;;
789;SDS011;378;48.844;9.156;2022-12-18T09:38:48;48.80;;;20.57;;
789;SDS011;378;48.844;9.156;2022-12-18T09:41:18;43.93;;;18.33;;
789;SDS011;378;48.844;9.156;2022-12-18T09:43:58;50.17;;;19.40;;
789;SDS011;378;48.844;9.156;2022-12-18T09:46:29;42.50;;;16.83;;
789;SDS011;378;48.844;9.156;2022-12-18T09:49:01;52.87;;;19.23;;
789;SDS011;378;48.844;9.156;2022-12-18T09:51:32;43.40;;;17.27;;
789;SDS011;378;48.844;9.156;2022-12-18T09:54:04;47.50;;;18.53;;
789;SDS011;378;48.844;9.156;2022-12-18T09:56:34;44.00;;;17.23;;
789;SDS011;378;48.844;9.156;2022-12-18T09:59:09;44.83;;;17.83;;
789;SDS011;378;48.844;9.156;2022-12-18T10:01:46;46.67;;;17.83;;
789;SDS011;378;48.844;9.156;2022-12-18T10:04:13;41.17;;;16.83;;
789;SDS011;378;48.844;9.156;2022-12-18T10:06:42;50.67;;;20.67;;
789;SDS011;378;48.844;9.156;2022-12-18T10:09:14;41.77;;;17.53;;
789;SDS011;378;48.844;9.156;2022-12-18T10:11:51;47.17;;;16.93;;
789;SDS011;378;48.844;9.156;2022-12-18T10:14:27;44.20;;;16.73;;
789;SDS011;378;48.844;9.156;2022-12-18T10:17:04;46.87;;;17.30;;
789;SDS011;378;48.844;9.156;2022-12-18T10:19:37;42.87;;;17.07;;
789;SDS011;378;48.844;9.156;2022-12-18T10:22:16;55.63;;;23.87;;
789;SDS011;378;48.844;9.156;2022-12-18T10:24:53;42.80;;;16.80;;
789;SDS011;378;48.844;9.156;2022-12-18T10:27:23;47.77;;;18.07;;
789;SDS011;378;48.844;9.156;2022-12-18T10:29:53;45.03;;;14.67;;
789;SDS011;378;48.844;9.156;2022-12-18T10:32:21;47.03;;;16.20;;
789;SDS011;378;48.844;9.156;2022-12-18T10:34:50;46.47;;;17.00;;
789;SDS011;378;48.844;9.156;2022-12-18T10:37:22;47.03;;;17.27;;
789;SDS011;378;48.844;9.156;2022-12-18T10:40:04;53.57;;;18.53;;
789;SDS011;378;48.844;9.156;2022-12-18T10:42:37;45.20;;;15.03;;
789;SDS011;378;48.844;9.156;2022-12-18T10:45:09;47.80;;;15.90;;
789;SDS011;378;48.844;9.156;2022-12-18T10:47:41;49.77;;;16.70;;
789;SDS011;378;48.844;9.156;2022-12-18T10:50:17;49.30;;;17.40;;
789;SDS011;378;48.844;9.156;2022-12-18T10:52:54;41.17;;;15.90;;
789;SDS011;378;48.844;9.156;2022-12-18T10:55:22;46.77;;;16.57;;
789;SDS011;378;48.844;9.156;2022-12-18T10:57:50;44.07;;;16.40;;
789;SDS011;378;48.844;9.156;2022-12-18T11:00:29;50.43;;;17.77;;
789;SDS011;378;48.844;9.156;2022-12-18T11:02:56;48.07;;;18.10;;
789;SDS011;378;48.844;9.156;2022-12-18T11:05:27;45.67;;;15.97;;
789;SDS011;378;48.844;9.156;2022-12-18T11:07:56;46.60;;;16.97;;
789;SDS011;378;48.844;9.156;2022-12-18T11:10:26;43.67;;;17.07;;
789;SDS011;378;48.844;9.156;2022-12-18T11:12:56;40.23;;;16.53;;
789;SDS011;378;48.844;9.156;2022-12-18T11:15:40;47.40;;;16.93;;
789;SDS011;378;48.844;9.156;2022-12-18T11:18:14;47.57;;;16.50;;
789;SDS011;378;48.844;9.156;2022-12-18T11:20:49;40.93;;;15.30;;
789;SDS011;378;48.844;9.156;2022-12-18T11:23:18;42.27;;;15.70;;
789;SDS011;378;48.844;9.156;2022-12-18T11:25:50;44.93;;;15.50;;
789;SDS011;378;48.844;9.156;2022-12-18T11:28:35;47.73;;;16.53;;
789;SDS011;378;48.844;9.156;2022-12-18T11:31:16;40.50;;;14.90;;
789;SDS011;378;48.844;9.156;2022-12-18T11:33:53;39.43;;;14.37;;
789;SDS011;378;48.844;9.156;2022-12-18T11:36:24;42.80;;;14.67;;
789;SDS011;378;48.844;9.156;2022-12-18T11:38:54;43.37;;;16.47;;
789;SDS011;378;48.844;9.156;2022-12-18T11:41:24;48.50;;;16.67;;
789;SDS011;378;48.844;9.156;2022-12-18T11:44:10;41.53;;;16.20;;
789;SDS011;378;48.844;9.156;2022-12-18T11:46:45;46.70;;;15.33;;
789;SDS011;378;48.844;9.156;2022-12-18T11:49:15;52.13;;;15.53;;
789;SDS011;378;48.844;9.156;2022-12-18T11:51:47;44.43;;;16.50;;
789;SDS011;378;48.844;9.156;2022-12-18T11:54:17;41.67;;;15.47;;
789;SDS011;378;48.844;9.156;2022-12-18T11:56:46;48.70;;;20.77;;
789;SDS011;378;48.844;9.156;2022-12-18T11:59:16;48.33;;;17.37;;
789;SDS011;378;48.844;9.156;2022-12-18T12:01:58;45.67;;;18.37;;
789;SDS011;378;48.844;9.156;2022-12-18T12:07:24;50.20;;;16.20;;
789;SDS011;378;48.844;9.156;2022-12-18T12:10:06;52.65;;;21.05;;
789;SDS011;378;48.844;9.156;2022-12-18T12:12:44;46.57;;;18.00;;
789;SDS011;378;48.844;9.156;2022-12-18T12:15:22;49.07;;;17.77;;
789;SDS011;378;48.844;9.156;2022-12-18T12:18:00;53.30;;;19.60;;
789;SDS011;378;48.844;9.156;2022-12-18T12:20:37;45.03;;;17.57;;
789;SDS011;378;48.844;9.156;2022-12-18T12:23:13;44.23;;;16.53;;
789;SDS011;378;48.844;9.156;2022-12-18T12:25:49;44.20;;;16.53;;
789;SDS011;378;48.844;9.156;2022-12-18T12:28:32;53.90;;;21.40;;
789;SDS011;378;48.844;9.156;2022-12-18T12:31:17;45.70;;;17.83;;
789;SDS011;378;48.844;9.156;2022-12-18T12:33:55;41.93;;;15.77;;
789;SDS011;378;48.844;9.156;2022-12-18T12:36:29;43.30;;;16.57;;
789;SDS011;378;48.844;9.156;2022-12-18T12:39:05;40.40;;;15.47;;
789;SDS011;378;48.844;9.156;2022-12-18T12:41:34;48.95;;;19.45;;
789;SDS011;378;48.844;9.156;2022-12-18T12:44:21;47.07;;;16.83;;
789;SDS011;378;48.844;9.156;2022-12-18T12:46:53;47.10;;;17.20;;
789;SDS011;378;48.844;9.156;2022-12-18T12:49:27;42.93;;;16.23;;
789;SDS011;378;48.844;9.156;2022-12-18T12:51:59;43.07;;;15.13;;
789;SDS011;378;48.844;9.156;2022-12-18T12:54:32;48.87;;;16.77;;
789;SDS011;378;48.844;9.156;2022-12-18T12:57:01;44.93;;;16.10;;
789;SDS011;378;48.844;9.156;2022-12-18T12:59:40;43.20;;;16.00;;
789;SDS011;378;48.844;9.156;2022-12-18T13:02:15;52.33;;;21.90;;
789;SDS011;378;48.844;9.156;2022-12-18T13:04:49;50.53;;;17.93;;
789;SDS011;378;48.844;9.156;2022-12-18T13:07:24;41.07;;;16.80;;
789;SDS011;378;48.844;9.156;2022-12-18T13:10:12;48.47;;;16.83;;
789;SDS011;378;48.844;9.156;2022-12-18T13:12:53;46.40;;;19.20;;
789;SDS011;378;48.844;9.156;2022-12-18T13:15:22;46.43;;;18.43;;
789;SDS011;378;48.844;9.156;2022-12-18T13:18:02;45.90;;;16.23;;
789;SDS011;378;48.844;9.156;2022-12-18T13:20:36;50.80;;;16.73;;
789;SDS011;378;48.844;9.156;2022-12-18T13:23:19;44.83;;;17.53;;
789;SDS011;378;48.844;9.156;2022-12-18T13:25:52;41.70;;;15.60;;
789;SDS011;378;48.844;9.156;2022-12-18T13:28:21;48.83;;;16.43;;
789;SDS011;378;48.844;9.156;2022-12-18T13:30:51;52.90;;;17.30;;
789;SDS011;378;48.844;9.156;2022-12-18T13:36:29;42.47;;;17.07;;
789;SDS011;378;48.844;9.156;2022-12-18T13:39:15;44.30;;;16.83;;
789;SDS011;378;48.844;9.156;2022-12-18T13:41:52;47.93;;;16.97;;
789;SDS011;378;48.844;9.156;2022-12-18T13:44:28;51.78;;;19.13;;
789;SDS011;378;48.844;9.156;2022-12-18T13:46:59;42.53;;;16.63;;
789;SDS011;378;48.844;9.156;2022-12-18T13:49:29;44.20;;;17.20;;
789;SDS011;378;48.844;9.156;2022-12-18T13:52:14;47.80;;;17.30;;
789;SDS011;378;48.844;9.156;2022-12-18T13:54:44;42.40;;;16.87;;
789;SDS011;378;48.844;9.156;2022-12-18T13:57:24;54.40;;;16.90;;
789;SDS011;378;48.844;9.156;2022-12-18T13:59:53;44.03;;;17.10;;
789;SDS011;378;48.844;9.156;2022-12-18T14:02:21;49.40;;;17.10;;
789;SDS011;378;48.844;9.156;2022-12-18T14:04:49;53.63;;;17.87;;
789;SDS011;378;48.844;9.156;2022-12-18T14:07:18;54.07;;;16.53;;
789;SDS011;378;48.844;9.156;2022-12-18T14:09:49;55.63;;;16.20;;
789;SDS011;378;48.844;9.156;2022-12-18T14:12:18;43.57;;;16.93;;
789;SDS011;378;48.844;9.156;2022-12-18T14:15:06;50.97;;;17.83;;
789;SDS011;378;48.844;9.156;2022-12-18T14:17:48;49.90;;;17.07;;
789;SDS011;378;48.844;9.156;2022-12-18T14:20:16;48.37;;;17.10;;
789;SDS011;378;48.844;9.156;2022-12-18T14:22:46;52.17;;;18.00;;
789;SDS011;378;48.844;9.156;2022-12-18T14:25:15;50.13;;;17.77;;
789;SDS011;378;48.844;9.156;2022-12-18T14:27:45;54.63;;;17.30;;
789;SDS011;378;48.844;9.156;2022-12-18T14:33:04;46.40;;;18.23;;
789;SDS011;378;48.844;9.156;2022-12-18T14:35:36;51.50;;;18.50;;
789;SDS011;378;48.844;9.156;2022-12-18T14:38:19;51.10;;;18.13;;
789;SDS011;378;48.844;9.156;2022-12-18T14:40:51;54.93;;;18.23;;
789;SDS011;378;48.844;9.156;2022-12-18T14:43:19;52.83;;;18.70;;
789;SDS011;378;48.844;9.156;2022-12-18T14:45:47;53.53;;;18.60;;
789;SDS011;378;48.844;9.156;2022-12-18T14:48:16;63.63;;;25.42;;
789;SDS011;378;48.844;9.156;2022-12-18T14:50:44;57.60;;;21.00;;
789;SDS011;378;48.844;9.156;2022-12-18T14:53:23;54.10;;;18.57;;
789;SDS011;378;48.844;9.156;2022-12-18T14:55:57;61.23;;;19.87;;
789;SDS011;378;48.844;9.156;2022-12-18T14:58:24;65.13;;;19.27;;
789;SDS011;378;48.844;9.156;2022-12-18T15:00:51;57.57;;;20.83;;
789;SDS011;378;48.844;9.156;2022-12-18T15:03:18;55.23;;;20.30;;
789;SDS011;378;48.844;9.156;2022-12-18T15:05:46;66.93;;;28.53;;
789;SDS011;378;48.844;9.156;2022-12-18T15:08:26;63.97;;;23.83;;
789;SDS011;378;48.844;9.156;2022-12-18T15:10:56;69.13;;;23.43;;
789;SDS011;378;48.844;9.156;2022-12-18T15:13:23;67.00;;;21.20;;
789;SDS011;378;48.844;9.156;2022-12-18T15:15:50;62.30;;;22.23;;
789;SDS011;378;48.844;9.156;2022-12-18T15:18:19;69.65;;;26.65;;
789;SDS011;378;48.844;9.156;2022-12-18T15:20:48;68.83;;;23.77;;
789;SDS011;378;48.844;9.156;2022-12-18T15:23:17;57.40;;;22.03;;
789;SDS011;378;48.844;9.156;2022-12-18T15:25:48;61.73;;;22.77;;
789;SDS011;378;48.844;9.156;2022-12-18T15:28:24;70.63;;;22.87;;
789;SDS011;378;48.844;9.156;2022-12-18T15:31:02;62.07;;;22.17;;
789;SDS011;378;48.844;9.156;2022-12-18T15:33:32;64.23;;;22.07;;
789;SDS011;378;48.844;9.156;2022-12-18T15:36:00;66.77;;;21.83;;
789;SDS011;378;48.844;9.156;2022-12-18T15:38:29;58.97;;;21.90;;
789;SDS011;378;48.844;9.156;2022-12-18T15:40:58;65.53;;;20.97;;
789;SDS011;378;48.844;9.156;2022-12-18T15:43:25;62.67;;;22.17;;
789;SDS011;378;48.844;9.156;2022-12-18T15:46:02;65.40;;;22.17;;